sensor_id;sensor_type;location;lat;lon;timestamp;temperature;humidity
4697;DHT22;2362;50.780;0.292;2023-11-21T00:01:17;10.30;99.90
4697;DHT22;2362;50.780;0.292;2023-11-21T00:03:43;10.30;99.90
4697;DHT22;2362;50.780;0.292;2023-11-21T00:06:09;10.30;99.90
4697;DHT22;2362;50.780;0.292;2023-11-21T00:08:35;10.30;99.90
4697;DHT22;2362;50.780;0.292;2023-11-21T00:11:01;10.20;99.90
4697;DHT22;2362;50.780;0.292;2023-11-21T00:13:28;10.20;99.90
4697;DHT22;2362;50.780;0.292;2023-11-21T00:15:53;10.20;99.90
4697;DHT22;2362;50.780;0.292;2023-11-21T00:18:19;10.20;99.90
4697;DHT22;2362;50.780;0.292;2023-11-21T00:20:44;10.20;99.90
4697;DHT22;2362;50.780;0.292;2023-11-21T00:23:10;10.20;99.90
4697;DHT22;2362;50.780;0.292;2023-11-21T00:25:37;10.30;99.90
4697;DHT22;2362;50.780;0.292;2023-11-21T00:28:03;10.30;99.90
4697;DHT22;2362;50.780;0.292;2023-11-21T00:30:28;10.30;99.90
4697;DHT22;2362;50.780;0.292;2023-11-21T00:32:55;10.30;99.90
4697;DHT22;2362;50.780;0.292;2023-11-21T00:35:21;10.30;99.90
4697;DHT22;2362;50.780;0.292;2023-11-21T00:37:47;10.30;99.90
4697;DHT22;2362;50.780;0.292;2023-11-21T00:40:15;10.30;99.90
4697;DHT22;2362;50.780;0.292;2023-11-21T00:42:41;10.30;99.90
4697;DHT22;2362;50.780;0.292;2023-11-21T00:45:07;10.30;99.90
4697;DHT22;2362;50.780;0.292;2023-11-21T00:47:33;10.20;99.90
4697;DHT22;2362;50.780;0.292;2023-11-21T00:49:58;10.20;99.90
4697;DHT22;2362;50.780;0.292;2023-11-21T00:52:24;10.20;99.90
4697;DHT22;2362;50.780;0.292;2023-11-21T00:54:50;10.20;99.90
4697;DHT22;2362;50.780;0.292;2023-11-21T00:57:16;10.30;99.90
4697;DHT22;2362;50.780;0.292;2023-11-21T00:59:41;10.30;99.90
4697;DHT22;2362;50.780;0.292;2023-11-21T01:02:07;10.30;99.90
4697;DHT22;2362;50.780;0.292;2023-11-21T01:04:35;10.30;99.90
4697;DHT22;2362;50.780;0.292;2023-11-21T01:07:01;10.30;99.90
4697;DHT22;2362;50.780;0.292;2023-11-21T01:09:27;10.30;99.90
4697;DHT22;2362;50.780;0.292;2023-11-21T01:11:53;10.30;99.90
4697;DHT22;2362;50.780;0.292;2023-11-21T01:14:19;10.30;99.90
4697;DHT22;2362;50.780;0.292;2023-11-21T01:16:44;10.30;99.90
4697;DHT22;2362;50.780;0.292;2023-11-21T01:19:11;10.30;99.90
4697;DHT22;2362;50.780;0.292;2023-11-21T01:21:36;10.30;99.90
4697;DHT22;2362;50.780;0.292;2023-11-21T01:24:02;10.30;99.90
4697;DHT22;2362;50.780;0.292;2023-11-21T01:26:29;10.30;99.90
4697;DHT22;2362;50.780;0.292;2023-11-21T01:28:54;10.30;99.90
4697;DHT22;2362;50.780;0.292;2023-11-21T01:31:20;10.30;99.90
4697;DHT22;2362;50.780;0.292;2023-11-21T01:33:46;10.40;99.90
4697;DHT22;2362;50.780;0.292;2023-11-21T01:36:11;10.40;99.90
4697;DHT22;2362;50.780;0.292;2023-11-21T01:38:37;10.30;99.90
4697;DHT22;2362;50.780;0.292;2023-11-21T01:41:03;10.40;99.90
4697;DHT22;2362;50.780;0.292;2023-11-21T01:43:30;10.40;99.90
4697;DHT22;2362;50.780;0.292;2023-11-21T01:45:58;10.40;99.90
4697;DHT22;2362;50.780;0.292;2023-11-21T01:48:24;10.40;99.90
4697;DHT22;2362;50.780;0.292;2023-11-21T01:50:50;10.40;99.90
4697;DHT22;2362;50.780;0.292;2023-11-21T01:53:16;10.40;99.90
4697;DHT22;2362;50.780;0.292;2023-11-21T01:55:42;10.40;99.90
4697;DHT22;2362;50.780;0.292;2023-11-21T01:58:09;10.40;99.90
4697;DHT22;2362;50.780;0.292;2023-11-21T02:00:35;10.40;99.90
4697;DHT22;2362;50.780;0.292;2023-11-21T02:03:01;10.40;99.90
4697;DHT22;2362;50.780;0.292;2023-11-21T02:05:26;10.40;99.90
4697;DHT22;2362;50.780;0.292;2023-11-21T02:07:52;10.40;99.90
4697;DHT22;2362;50.780;0.292;2023-11-21T02:10:18;10.40;99.90
4697;DHT22;2362;50.780;0.292;2023-11-21T02:12:49;10.40;99.90
4697;DHT22;2362;50.780;0.292;2023-11-21T02:15:18;10.40;99.90
4697;DHT22;2362;50.780;0.292;2023-11-21T02:17:47;10.40;99.90
4697;DHT22;2362;50.780;0.292;2023-11-21T02:20:17;10.40;99.90
4697;DHT22;2362;50.780;0.292;2023-11-21T02:22:51;10.40;99.90
4697;DHT22;2362;50.780;0.292;2023-11-21T02:25:32;10.40;99.90
4697;DHT22;2362;50.780;0.292;2023-11-21T02:28:00;10.40;99.90
4697;DHT22;2362;50.780;0.292;2023-11-21T02:30:27;10.40;99.90
4697;DHT22;2362;50.780;0.292;2023-11-21T02:32:59;10.40;99.90
4697;DHT22;2362;50.780;0.292;2023-11-21T02:35:25;10.40;99.90
4697;DHT22;2362;50.780;0.292;2023-11-21T02:37:51;10.40;99.90
4697;DHT22;2362;50.780;0.292;2023-11-21T02:40:17;10.40;99.90
4697;DHT22;2362;50.780;0.292;2023-11-21T02:42:44;10.40;99.90
4697;DHT22;2362;50.780;0.292;2023-11-21T02:45:10;10.40;99.90
4697;DHT22;2362;50.780;0.292;2023-11-21T02:47:39;10.40;99.90
4697;DHT22;2362;50.780;0.292;2023-11-21T02:50:05;10.30;99.90
4697;DHT22;2362;50.780;0.292;2023-11-21T02:52:33;10.30;99.90
4697;DHT22;2362;50.780;0.292;2023-11-21T02:54:59;10.20;99.90
4697;DHT22;2362;50.780;0.292;2023-11-21T02:57:25;10.20;99.90
4697;DHT22;2362;50.780;0.292;2023-11-21T02:59:50;10.20;99.90
4697;DHT22;2362;50.780;0.292;2023-11-21T03:02:16;10.10;99.90
4697;DHT22;2362;50.780;0.292;2023-11-21T03:04:42;10.20;99.90
4697;DHT22;2362;50.780;0.292;2023-11-21T03:07:09;10.30;99.90
4697;DHT22;2362;50.780;0.292;2023-11-21T03:09:35;10.30;99.90
4697;DHT22;2362;50.780;0.292;2023-11-21T03:12:01;10.30;99.90
4697;DHT22;2362;50.780;0.292;2023-11-21T03:14:27;10.30;99.90
4697;DHT22;2362;50.780;0.292;2023-11-21T03:16:53;10.40;99.90
4697;DHT22;2362;50.780;0.292;2023-11-21T03:19:18;10.30;99.90
4697;DHT22;2362;50.780;0.292;2023-11-21T03:21:44;10.40;99.90
4697;DHT22;2362;50.780;0.292;2023-11-21T03:24:09;10.40;99.90
4697;DHT22;2362;50.780;0.292;2023-11-21T03:26:35;10.40;99.90
4697;DHT22;2362;50.780;0.292;2023-11-21T03:29:02;10.40;99.90
4697;DHT22;2362;50.780;0.292;2023-11-21T03:31:28;10.40;99.90
4697;DHT22;2362;50.780;0.292;2023-11-21T03:33:54;10.40;99.90
4697;DHT22;2362;50.780;0.292;2023-11-21T03:36:20;10.50;99.90
4697;DHT22;2362;50.780;0.292;2023-11-21T03:38:45;10.50;99.90
4697;DHT22;2362;50.780;0.292;2023-11-21T03:41:11;10.40;99.90
4697;DHT22;2362;50.780;0.292;2023-11-21T03:43:37;10.40;99.90
4697;DHT22;2362;50.780;0.292;2023-11-21T03:46:03;10.50;99.90
4697;DHT22;2362;50.780;0.292;2023-11-21T03:48:29;10.50;99.90
4697;DHT22;2362;50.780;0.292;2023-11-21T03:50:54;10.50;99.90
4697;DHT22;2362;50.780;0.292;2023-11-21T03:53:20;10.50;99.90
4697;DHT22;2362;50.780;0.292;2023-11-21T03:55:46;10.50;99.90
4697;DHT22;2362;50.780;0.292;2023-11-21T03:58:13;10.60;99.90
4697;DHT22;2362;50.780;0.292;2023-11-21T04:00:38;10.60;99.90
4697;DHT22;2362;50.780;0.292;2023-11-21T04:03:04;10.70;99.90
4697;DHT22;2362;50.780;0.292;2023-11-21T04:05:30;10.70;99.90
4697;DHT22;2362;50.780;0.292;2023-11-21T04:07:56;10.80;99.90
4697;DHT22;2362;50.780;0.292;2023-11-21T04:10:22;10.80;99.90
4697;DHT22;2362;50.780;0.292;2023-11-21T04:12:48;10.80;99.90
4697;DHT22;2362;50.780;0.292;2023-11-21T04:15:14;10.90;99.90
4697;DHT22;2362;50.780;0.292;2023-11-21T04:17:40;10.90;99.90
4697;DHT22;2362;50.780;0.292;2023-11-21T04:20:06;10.90;99.90
4697;DHT22;2362;50.780;0.292;2023-11-21T04:22:36;10.90;99.90
4697;DHT22;2362;50.780;0.292;2023-11-21T04:25:02;11.00;99.90
4697;DHT22;2362;50.780;0.292;2023-11-21T04:27:28;10.90;99.90
4697;DHT22;2362;50.780;0.292;2023-11-21T04:29:53;11.00;99.90
4697;DHT22;2362;50.780;0.292;2023-11-21T04:32:19;11.00;99.90
4697;DHT22;2362;50.780;0.292;2023-11-21T04:34:45;11.00;99.90
4697;DHT22;2362;50.780;0.292;2023-11-21T04:37:10;11.00;99.90
4697;DHT22;2362;50.780;0.292;2023-11-21T04:39:36;11.00;99.90
4697;DHT22;2362;50.780;0.292;2023-11-21T04:42:01;11.00;99.90
4697;DHT22;2362;50.780;0.292;2023-11-21T04:44:27;11.00;99.90
4697;DHT22;2362;50.780;0.292;2023-11-21T04:46:53;11.00;99.90
4697;DHT22;2362;50.780;0.292;2023-11-21T04:49:18;11.00;99.90
4697;DHT22;2362;50.780;0.292;2023-11-21T04:51:44;11.00;99.90
4697;DHT22;2362;50.780;0.292;2023-11-21T04:54:10;11.00;99.90
4697;DHT22;2362;50.780;0.292;2023-11-21T04:56:35;11.00;99.90
4697;DHT22;2362;50.780;0.292;2023-11-21T04:59:01;11.00;99.90
4697;DHT22;2362;50.780;0.292;2023-11-21T05:01:27;11.00;99.90
4697;DHT22;2362;50.780;0.292;2023-11-21T05:03:52;11.00;99.90
4697;DHT22;2362;50.780;0.292;2023-11-21T05:06:18;11.00;99.90
4697;DHT22;2362;50.780;0.292;2023-11-21T05:08:44;11.00;99.90
4697;DHT22;2362;50.780;0.292;2023-11-21T05:11:09;11.00;99.90
4697;DHT22;2362;50.780;0.292;2023-11-21T05:13:36;11.00;99.90
4697;DHT22;2362;50.780;0.292;2023-11-21T05:16:03;11.00;99.90
4697;DHT22;2362;50.780;0.292;2023-11-21T05:18:31;11.00;99.90
4697;DHT22;2362;50.780;0.292;2023-11-21T05:20:57;11.00;99.90
4697;DHT22;2362;50.780;0.292;2023-11-21T05:23:23;11.00;99.90
4697;DHT22;2362;50.780;0.292;2023-11-21T05:25:49;11.00;99.90
4697;DHT22;2362;50.780;0.292;2023-11-21T05:28:15;11.00;99.90
4697;DHT22;2362;50.780;0.292;2023-11-21T05:30:40;11.00;99.90
4697;DHT22;2362;50.780;0.292;2023-11-21T05:33:06;11.00;99.90
4697;DHT22;2362;50.780;0.292;2023-11-21T05:35:32;11.00;99.90
4697;DHT22;2362;50.780;0.292;2023-11-21T05:37:57;11.00;99.90
4697;DHT22;2362;50.780;0.292;2023-11-21T05:40:23;10.90;99.90
4697;DHT22;2362;50.780;0.292;2023-11-21T05:42:50;10.90;99.90
4697;DHT22;2362;50.780;0.292;2023-11-21T05:45:16;10.90;99.90
4697;DHT22;2362;50.780;0.292;2023-11-21T05:47:45;10.90;99.90
4697;DHT22;2362;50.780;0.292;2023-11-21T05:50:13;10.90;99.90
4697;DHT22;2362;50.780;0.292;2023-11-21T05:52:43;10.90;99.90
4697;DHT22;2362;50.780;0.292;2023-11-21T05:55:09;10.90;99.90
4697;DHT22;2362;50.780;0.292;2023-11-21T05:57:39;10.90;99.90
4697;DHT22;2362;50.780;0.292;2023-11-21T06:00:06;10.90;99.90
4697;DHT22;2362;50.780;0.292;2023-11-21T06:02:37;10.90;99.90
4697;DHT22;2362;50.780;0.292;2023-11-21T06:05:04;10.90;99.90
4697;DHT22;2362;50.780;0.292;2023-11-21T06:07:30;10.90;99.90
4697;DHT22;2362;50.780;0.292;2023-11-21T06:09:55;10.90;99.90
4697;DHT22;2362;50.780;0.292;2023-11-21T06:12:21;10.90;99.90
4697;DHT22;2362;50.780;0.292;2023-11-21T06:14:47;10.90;99.90
4697;DHT22;2362;50.780;0.292;2023-11-21T06:17:13;10.90;99.90
4697;DHT22;2362;50.780;0.292;2023-11-21T06:19:39;10.90;99.90
4697;DHT22;2362;50.780;0.292;2023-11-21T06:22:05;10.90;99.90
4697;DHT22;2362;50.780;0.292;2023-11-21T06:24:31;10.90;99.90
4697;DHT22;2362;50.780;0.292;2023-11-21T06:26:57;10.90;99.90
4697;DHT22;2362;50.780;0.292;2023-11-21T06:29:23;10.90;99.90
4697;DHT22;2362;50.780;0.292;2023-11-21T06:31:49;10.90;99.90
4697;DHT22;2362;50.780;0.292;2023-11-21T06:34:14;10.80;99.90
4697;DHT22;2362;50.780;0.292;2023-11-21T06:36:40;10.80;99.90
4697;DHT22;2362;50.780;0.292;2023-11-21T06:39:05;10.80;99.90
4697;DHT22;2362;50.780;0.292;2023-11-21T06:41:33;10.80;99.90
4697;DHT22;2362;50.780;0.292;2023-11-21T06:43:59;10.80;99.90
4697;DHT22;2362;50.780;0.292;2023-11-21T06:46:24;10.80;99.90
4697;DHT22;2362;50.780;0.292;2023-11-21T06:48:50;10.70;99.90
4697;DHT22;2362;50.780;0.292;2023-11-21T06:51:16;10.70;99.90
4697;DHT22;2362;50.780;0.292;2023-11-21T06:53:41;10.70;99.90
4697;DHT22;2362;50.780;0.292;2023-11-21T06:56:17;10.70;99.90
4697;DHT22;2362;50.780;0.292;2023-11-21T06:58:45;10.70;99.90
4697;DHT22;2362;50.780;0.292;2023-11-21T07:01:14;10.70;99.90
4697;DHT22;2362;50.780;0.292;2023-11-21T07:03:41;10.70;99.90
4697;DHT22;2362;50.780;0.292;2023-11-21T07:06:07;10.70;99.90
4697;DHT22;2362;50.780;0.292;2023-11-21T07:08:33;10.70;99.90
4697;DHT22;2362;50.780;0.292;2023-11-21T07:10:59;10.70;99.90
4697;DHT22;2362;50.780;0.292;2023-11-21T07:13:24;10.70;99.90
4697;DHT22;2362;50.780;0.292;2023-11-21T07:15:51;10.80;99.90
4697;DHT22;2362;50.780;0.292;2023-11-21T07:18:17;10.70;99.90
4697;DHT22;2362;50.780;0.292;2023-11-21T07:20:43;10.70;99.90
4697;DHT22;2362;50.780;0.292;2023-11-21T07:23:09;10.60;99.90
4697;DHT22;2362;50.780;0.292;2023-11-21T07:25:35;10.60;99.90
4697;DHT22;2362;50.780;0.292;2023-11-21T07:28:01;10.60;99.90
4697;DHT22;2362;50.780;0.292;2023-11-21T07:30:27;10.60;99.90
4697;DHT22;2362;50.780;0.292;2023-11-21T07:32:53;10.60;99.90
4697;DHT22;2362;50.780;0.292;2023-11-21T07:35:19;10.50;99.90
4697;DHT22;2362;50.780;0.292;2023-11-21T07:37:44;10.50;99.90
4697;DHT22;2362;50.780;0.292;2023-11-21T07:40:10;10.50;99.90
4697;DHT22;2362;50.780;0.292;2023-11-21T07:42:37;10.50;99.90
4697;DHT22;2362;50.780;0.292;2023-11-21T07:45:04;10.50;99.90
4697;DHT22;2362;50.780;0.292;2023-11-21T07:47:30;10.50;99.90
4697;DHT22;2362;50.780;0.292;2023-11-21T07:49:55;10.50;99.90
4697;DHT22;2362;50.780;0.292;2023-11-21T07:52:22;10.40;99.90
4697;DHT22;2362;50.780;0.292;2023-11-21T07:54:48;10.40;99.90
4697;DHT22;2362;50.780;0.292;2023-11-21T07:57:13;10.40;99.90
4697;DHT22;2362;50.780;0.292;2023-11-21T07:59:42;10.40;99.90
4697;DHT22;2362;50.780;0.292;2023-11-21T08:02:08;10.40;99.90
4697;DHT22;2362;50.780;0.292;2023-11-21T08:04:33;10.40;99.90
4697;DHT22;2362;50.780;0.292;2023-11-21T08:07:01;10.40;99.90
4697;DHT22;2362;50.780;0.292;2023-11-21T08:09:27;10.40;99.90
4697;DHT22;2362;50.780;0.292;2023-11-21T08:11:53;10.40;99.90
4697;DHT22;2362;50.780;0.292;2023-11-21T08:14:19;10.40;99.90
4697;DHT22;2362;50.780;0.292;2023-11-21T08:16:45;10.40;99.90
4697;DHT22;2362;50.780;0.292;2023-11-21T08:19:11;10.40;99.90
4697;DHT22;2362;50.780;0.292;2023-11-21T08:21:37;10.40;99.90
4697;DHT22;2362;50.780;0.292;2023-11-21T08:24:06;10.30;99.90
4697;DHT22;2362;50.780;0.292;2023-11-21T08:26:36;10.30;99.90
4697;DHT22;2362;50.780;0.292;2023-11-21T08:29:02;10.30;99.90
4697;DHT22;2362;50.780;0.292;2023-11-21T08:31:28;10.30;99.90
4697;DHT22;2362;50.780;0.292;2023-11-21T08:33:55;10.30;99.90
4697;DHT22;2362;50.780;0.292;2023-11-21T08:36:22;10.30;99.90
4697;DHT22;2362;50.780;0.292;2023-11-21T08:38:50;10.30;99.90
4697;DHT22;2362;50.780;0.292;2023-11-21T08:41:17;10.30;99.90
4697;DHT22;2362;50.780;0.292;2023-11-21T08:43:43;10.30;99.90
4697;DHT22;2362;50.780;0.292;2023-11-21T08:46:10;10.30;99.90
4697;DHT22;2362;50.780;0.292;2023-11-21T08:48:36;10.40;99.90
4697;DHT22;2362;50.780;0.292;2023-11-21T08:51:03;10.30;99.90
4697;DHT22;2362;50.780;0.292;2023-11-21T08:53:29;10.30;99.90
4697;DHT22;2362;50.780;0.292;2023-11-21T08:55:56;10.30;99.90
4697;DHT22;2362;50.780;0.292;2023-11-21T08:58:22;10.30;99.90
4697;DHT22;2362;50.780;0.292;2023-11-21T09:00:48;10.30;99.90
4697;DHT22;2362;50.780;0.292;2023-11-21T09:03:13;10.40;99.90
4697;DHT22;2362;50.780;0.292;2023-11-21T09:05:39;10.40;99.90
4697;DHT22;2362;50.780;0.292;2023-11-21T09:08:05;10.40;99.90
4697;DHT22;2362;50.780;0.292;2023-11-21T09:10:33;10.40;99.90
4697;DHT22;2362;50.780;0.292;2023-11-21T09:13:02;10.40;99.90
4697;DHT22;2362;50.780;0.292;2023-11-21T09:15:28;10.40;99.90
4697;DHT22;2362;50.780;0.292;2023-11-21T09:17:54;10.30;99.90
4697;DHT22;2362;50.780;0.292;2023-11-21T09:20:19;10.30;99.90
4697;DHT22;2362;50.780;0.292;2023-11-21T09:22:48;10.30;99.90
4697;DHT22;2362;50.780;0.292;2023-11-21T09:25:14;10.30;99.90
4697;DHT22;2362;50.780;0.292;2023-11-21T09:27:40;10.40;99.90
4697;DHT22;2362;50.780;0.292;2023-11-21T09:30:07;10.40;99.90
4697;DHT22;2362;50.780;0.292;2023-11-21T09:32:37;10.30;99.90
4697;DHT22;2362;50.780;0.292;2023-11-21T09:35:06;10.30;99.90
4697;DHT22;2362;50.780;0.292;2023-11-21T09:37:35;10.40;99.90
4697;DHT22;2362;50.780;0.292;2023-11-21T09:40:01;10.40;99.90
4697;DHT22;2362;50.780;0.292;2023-11-21T09:42:36;10.40;99.90
4697;DHT22;2362;50.780;0.292;2023-11-21T09:45:17;10.40;99.90
4697;DHT22;2362;50.780;0.292;2023-11-21T09:47:46;10.40;99.90
4697;DHT22;2362;50.780;0.292;2023-11-21T09:50:16;10.50;99.90
4697;DHT22;2362;50.780;0.292;2023-11-21T09:53:09;10.40;99.90
4697;DHT22;2362;50.780;0.292;2023-11-21T09:55:37;10.40;99.90
4697;DHT22;2362;50.780;0.292;2023-11-21T09:58:06;10.40;99.90
4697;DHT22;2362;50.780;0.292;2023-11-21T10:00:34;10.40;99.90
4697;DHT22;2362;50.780;0.292;2023-11-21T10:03:00;10.40;99.90
4697;DHT22;2362;50.780;0.292;2023-11-21T10:05:25;10.40;99.90
4697;DHT22;2362;50.780;0.292;2023-11-21T10:07:52;10.40;99.90
4697;DHT22;2362;50.780;0.292;2023-11-21T10:10:19;10.40;99.90
4697;DHT22;2362;50.780;0.292;2023-11-21T10:12:49;10.50;99.90
4697;DHT22;2362;50.780;0.292;2023-11-21T10:15:21;10.60;99.90
4697;DHT22;2362;50.780;0.292;2023-11-21T10:17:49;10.60;99.90
4697;DHT22;2362;50.780;0.292;2023-11-21T10:20:15;10.60;99.90
4697;DHT22;2362;50.780;0.292;2023-11-21T10:22:42;10.70;99.90
4697;DHT22;2362;50.780;0.292;2023-11-21T10:25:09;10.80;99.90
4697;DHT22;2362;50.780;0.292;2023-11-21T10:27:38;10.80;99.90
4697;DHT22;2362;50.780;0.292;2023-11-21T10:30:05;10.90;99.90
4697;DHT22;2362;50.780;0.292;2023-11-21T10:32:31;10.70;99.90
4697;DHT22;2362;50.780;0.292;2023-11-21T10:34:58;10.70;99.90
4697;DHT22;2362;50.780;0.292;2023-11-21T10:37:32;10.70;99.90
4697;DHT22;2362;50.780;0.292;2023-11-21T10:40:01;10.60;99.90
4697;DHT22;2362;50.780;0.292;2023-11-21T10:42:27;10.70;99.90
4697;DHT22;2362;50.780;0.292;2023-11-21T10:44:55;10.60;99.90
4697;DHT22;2362;50.780;0.292;2023-11-21T10:47:21;10.70;99.90
4697;DHT22;2362;50.780;0.292;2023-11-21T10:49:51;10.80;99.90
4697;DHT22;2362;50.780;0.292;2023-11-21T10:52:21;10.70;99.90
4697;DHT22;2362;50.780;0.292;2023-11-21T10:54:52;10.80;99.90
4697;DHT22;2362;50.780;0.292;2023-11-21T10:57:18;10.80;99.90
4697;DHT22;2362;50.780;0.292;2023-11-21T10:59:47;10.90;99.90
4697;DHT22;2362;50.780;0.292;2023-11-21T11:02:23;11.00;99.90
4697;DHT22;2362;50.780;0.292;2023-11-21T11:04:52;11.00;99.90
4697;DHT22;2362;50.780;0.292;2023-11-21T11:07:21;11.10;99.90
4697;DHT22;2362;50.780;0.292;2023-11-21T11:09:50;11.20;99.90
4697;DHT22;2362;50.780;0.292;2023-11-21T11:12:16;11.10;99.90
4697;DHT22;2362;50.780;0.292;2023-11-21T11:14:43;11.20;99.90
4697;DHT22;2362;50.780;0.292;2023-11-21T11:17:10;11.20;99.90
4697;DHT22;2362;50.780;0.292;2023-11-21T11:19:36;11.10;99.90
4697;DHT22;2362;50.780;0.292;2023-11-21T11:22:29;11.20;99.90
4697;DHT22;2362;50.780;0.292;2023-11-21T11:27:40;11.40;99.90
4697;DHT22;2362;50.780;0.292;2023-11-21T11:30:19;11.40;99.90
4697;DHT22;2362;50.780;0.292;2023-11-21T11:35:23;11.60;99.90
4697;DHT22;2362;50.780;0.292;2023-11-21T11:37:50;11.60;99.90
4697;DHT22;2362;50.780;0.292;2023-11-21T11:40:16;11.60;99.90
4697;DHT22;2362;50.780;0.292;2023-11-21T11:42:58;11.50;99.90
4697;DHT22;2362;50.780;0.292;2023-11-21T11:45:34;11.60;99.90
4697;DHT22;2362;50.780;0.292;2023-11-21T11:48:01;11.60;99.90
4697;DHT22;2362;50.780;0.292;2023-11-21T11:50:29;11.60;99.90
4697;DHT22;2362;50.780;0.292;2023-11-21T11:52:57;11.60;99.90
4697;DHT22;2362;50.780;0.292;2023-11-21T11:55:37;11.60;99.90
4697;DHT22;2362;50.780;0.292;2023-11-21T11:58:06;11.40;99.90
4697;DHT22;2362;50.780;0.292;2023-11-21T12:03:00;11.40;99.90
4697;DHT22;2362;50.780;0.292;2023-11-21T12:05:30;11.40;99.90
4697;DHT22;2362;50.780;0.292;2023-11-21T12:08:04;11.40;99.90
4697;DHT22;2362;50.780;0.292;2023-11-21T12:10:36;11.30;99.90
4697;DHT22;2362;50.780;0.292;2023-11-21T12:13:09;11.30;99.90
4697;DHT22;2362;50.780;0.292;2023-11-21T12:15:36;11.30;99.90
4697;DHT22;2362;50.780;0.292;2023-11-21T12:18:02;11.30;99.90
4697;DHT22;2362;50.780;0.292;2023-11-21T12:20:30;11.40;99.90
4697;DHT22;2362;50.780;0.292;2023-11-21T12:22:57;11.30;99.90
4697;DHT22;2362;50.780;0.292;2023-11-21T12:25:30;11.30;99.90
4697;DHT22;2362;50.780;0.292;2023-11-21T12:28:00;11.40;99.90
4697;DHT22;2362;50.780;0.292;2023-11-21T12:30:28;11.40;99.90
4697;DHT22;2362;50.780;0.292;2023-11-21T12:32:56;11.50;99.90
4697;DHT22;2362;50.780;0.292;2023-11-21T12:35:28;11.40;99.90
4697;DHT22;2362;50.780;0.292;2023-11-21T12:37:56;11.40;99.90
4697;DHT22;2362;50.780;0.292;2023-11-21T12:40:24;11.40;99.90
4697;DHT22;2362;50.780;0.292;2023-11-21T12:42:58;11.40;99.90
4697;DHT22;2362;50.780;0.292;2023-11-21T12:45:25;11.50;99.90
4697;DHT22;2362;50.780;0.292;2023-11-21T12:48:02;11.40;99.90
4697;DHT22;2362;50.780;0.292;2023-11-21T12:50:34;11.40;99.90
4697;DHT22;2362;50.780;0.292;2023-11-21T12:53:12;11.40;99.90
4697;DHT22;2362;50.780;0.292;2023-11-21T12:55:38;11.40;99.90
4697;DHT22;2362;50.780;0.292;2023-11-21T12:58:06;11.40;99.90
4697;DHT22;2362;50.780;0.292;2023-11-21T13:00:45;11.40;99.90
4697;DHT22;2362;50.780;0.292;2023-11-21T13:03:13;11.40;99.90
4697;DHT22;2362;50.780;0.292;2023-11-21T13:05:43;11.30;99.90
4697;DHT22;2362;50.780;0.292;2023-11-21T13:08:13;11.30;99.90
4697;DHT22;2362;50.780;0.292;2023-11-21T13:10:40;11.30;99.90
4697;DHT22;2362;50.780;0.292;2023-11-21T13:13:09;11.30;99.90
4697;DHT22;2362;50.780;0.292;2023-11-21T13:15:39;11.40;99.90
4697;DHT22;2362;50.780;0.292;2023-11-21T13:18:06;11.40;99.90
4697;DHT22;2362;50.780;0.292;2023-11-21T13:20:32;11.40;99.90
4697;DHT22;2362;50.780;0.292;2023-11-21T13:22:58;11.40;99.90
4697;DHT22;2362;50.780;0.292;2023-11-21T13:25:29;11.50;99.90
4697;DHT22;2362;50.780;0.292;2023-11-21T13:28:00;11.50;99.90
4697;DHT22;2362;50.780;0.292;2023-11-21T13:30:29;11.50;99.90
4697;DHT22;2362;50.780;0.292;2023-11-21T13:33:01;11.40;99.90
4697;DHT22;2362;50.780;0.292;2023-11-21T13:35:28;11.50;99.90
4697;DHT22;2362;50.780;0.292;2023-11-21T13:38:21;11.50;99.90
4697;DHT22;2362;50.780;0.292;2023-11-21T13:40:53;11.50;99.90
4697;DHT22;2362;50.780;0.292;2023-11-21T13:43:23;11.50;99.90
4697;DHT22;2362;50.780;0.292;2023-11-21T13:45:52;11.50;99.90
4697;DHT22;2362;50.780;0.292;2023-11-21T13:48:32;11.40;99.90
4697;DHT22;2362;50.780;0.292;2023-11-21T13:51:06;11.40;99.90
4697;DHT22;2362;50.780;0.292;2023-11-21T13:53:46;11.40;99.90
4697;DHT22;2362;50.780;0.292;2023-11-21T13:56:18;11.40;99.90
4697;DHT22;2362;50.780;0.292;2023-11-21T13:58:51;11.40;99.90
4697;DHT22;2362;50.780;0.292;2023-11-21T14:01:21;11.40;99.90
4697;DHT22;2362;50.780;0.292;2023-11-21T14:04:00;11.40;99.90
4697;DHT22;2362;50.780;0.292;2023-11-21T14:06:48;11.40;99.90
4697;DHT22;2362;50.780;0.292;2023-11-21T14:09:15;11.40;99.90
4697;DHT22;2362;50.780;0.292;2023-11-21T14:11:49;11.40;99.90
4697;DHT22;2362;50.780;0.292;2023-11-21T14:14:17;11.40;99.90
4697;DHT22;2362;50.780;0.292;2023-11-21T14:16:43;11.40;99.90
4697;DHT22;2362;50.780;0.292;2023-11-21T14:19:10;11.40;99.90
4697;DHT22;2362;50.780;0.292;2023-11-21T14:21:41;11.50;99.90
4697;DHT22;2362;50.780;0.292;2023-11-21T14:24:14;11.50;99.90
4697;DHT22;2362;50.780;0.292;2023-11-21T14:26:43;11.40;99.90
4697;DHT22;2362;50.780;0.292;2023-11-21T14:29:11;11.50;99.90
4697;DHT22;2362;50.780;0.292;2023-11-21T14:31:40;11.50;99.90
4697;DHT22;2362;50.780;0.292;2023-11-21T14:34:06;11.40;99.90
4697;DHT22;2362;50.780;0.292;2023-11-21T14:36:33;11.40;99.90
4697;DHT22;2362;50.780;0.292;2023-11-21T14:38:58;11.50;99.90
4697;DHT22;2362;50.780;0.292;2023-11-21T14:41:24;11.50;99.90
4697;DHT22;2362;50.780;0.292;2023-11-21T14:43:51;11.40;99.90
4697;DHT22;2362;50.780;0.292;2023-11-21T14:46:16;11.40;99.90
4697;DHT22;2362;50.780;0.292;2023-11-21T14:48:45;11.40;99.90
4697;DHT22;2362;50.780;0.292;2023-11-21T14:51:25;11.30;99.90
4697;DHT22;2362;50.780;0.292;2023-11-21T14:54:00;11.40;99.90
4697;DHT22;2362;50.780;0.292;2023-11-21T14:56:32;11.40;99.90
4697;DHT22;2362;50.780;0.292;2023-11-21T14:59:02;11.40;99.90
4697;DHT22;2362;50.780;0.292;2023-11-21T15:01:34;11.40;99.90
4697;DHT22;2362;50.780;0.292;2023-11-21T15:04:19;11.40;99.90
4697;DHT22;2362;50.780;0.292;2023-11-21T15:07:05;11.40;99.90
4697;DHT22;2362;50.780;0.292;2023-11-21T15:09:31;11.30;99.90
4697;DHT22;2362;50.780;0.292;2023-11-21T15:11:58;11.20;99.90
4697;DHT22;2362;50.780;0.292;2023-11-21T15:14:35;11.20;99.90
4697;DHT22;2362;50.780;0.292;2023-11-21T15:17:02;11.30;99.90
4697;DHT22;2362;50.780;0.292;2023-11-21T15:19:28;11.30;99.90
4697;DHT22;2362;50.780;0.292;2023-11-21T15:21:57;11.30;99.90
4697;DHT22;2362;50.780;0.292;2023-11-21T15:24:23;11.30;99.90
4697;DHT22;2362;50.780;0.292;2023-11-21T15:26:50;11.30;99.90
4697;DHT22;2362;50.780;0.292;2023-11-21T15:29:16;11.40;99.90
4697;DHT22;2362;50.780;0.292;2023-11-21T15:31:42;11.40;99.90
4697;DHT22;2362;50.780;0.292;2023-11-21T15:34:14;11.40;99.90
4697;DHT22;2362;50.780;0.292;2023-11-21T15:36:40;11.40;99.90
4697;DHT22;2362;50.780;0.292;2023-11-21T15:39:05;11.40;99.90
4697;DHT22;2362;50.780;0.292;2023-11-21T15:41:37;11.40;99.90
4697;DHT22;2362;50.780;0.292;2023-11-21T15:44:07;11.40;99.90
4697;DHT22;2362;50.780;0.292;2023-11-21T15:46:37;11.40;99.90
4697;DHT22;2362;50.780;0.292;2023-11-21T15:49:04;11.40;99.90
4697;DHT22;2362;50.780;0.292;2023-11-21T15:51:42;11.40;99.90
4697;DHT22;2362;50.780;0.292;2023-11-21T15:54:10;11.40;99.90
4697;DHT22;2362;50.780;0.292;2023-11-21T15:56:36;11.30;99.90
4697;DHT22;2362;50.780;0.292;2023-11-21T15:59:03;11.20;99.90
4697;DHT22;2362;50.780;0.292;2023-11-21T16:01:29;11.00;99.90
4697;DHT22;2362;50.780;0.292;2023-11-21T16:03:55;10.90;99.90
4697;DHT22;2362;50.780;0.292;2023-11-21T16:06:21;10.80;99.90
4697;DHT22;2362;50.780;0.292;2023-11-21T16:08:46;10.70;99.90
4697;DHT22;2362;50.780;0.292;2023-11-21T16:11:13;10.70;99.90
4697;DHT22;2362;50.780;0.292;2023-11-21T16:13:39;10.60;99.90